Baevo, Russia
Current Conditions -  °F | °C
As of 4:30 PM on Thursday 27 Nov 2014 (Local Time) from UNBB Reporting Station
Light Snow Light Snow  
Wind Chill: -3°   Ceiling: 800
Heat Index: 14°   Visibility: 6mi
Dew Point: 10°   Wind: 18mph
Humidity: 86%   Direction: 240°WSW
Pressure: 29.65"   Gusts: NA
Location:  53.27°N, 80.77°E
Report Text: UNBB 270930Z 24008MPS 9000 -SN DRSN BKN008 M10/M12 Q1004 TEMPO0500 +SHSN BLSN BKN002 BKN010CB RMK QFE731/0975 24401545
Loading
Personal Weather Stations






























Interactive Weather Map New forecast layout! Learn more

10-Day Weather Forecast

Advertisements
Track Severe Weather on mobile